Wadena, Canada
Current Conditions -  °F | °C
As of 2:00 AM on Saturday 20 Dec 2014 (Local Time) from CYQV Reporting Station
Overcast Overcast  
Wind Chill: 14°   Ceiling: 500
Heat Index: 21°   Visibility: 9mi
Dew Point: 21°   Wind: 6mph
Humidity: 100%   Direction: 180°S
Pressure: 29.9"   Gusts: NA
Location:  51.95°N, 103.8°W
Report Text: CYQV 200800Z AUTO 18005KT 9SM OVC005 M06/M06 A2990 RMK SLP159
Loading
Personal Weather Stations






























Interactive Weather Map New forecast layout! Learn more

10-Day Weather Forecast

Advertisements
Track Severe Weather on mobile